sensor_id;sensor_type;location;lat;lon;timestamp;pressure;altitude;pressure_sealevel;temperature;humidity
50268;BME280;36153;50.960;6.220;2022-09-27T00:01:15;98713.66;;;14.13;66.46
50268;BME280;36153;50.960;6.220;2022-09-27T00:04:16;98713.72;;;14.12;66.17
50268;BME280;36153;50.960;6.220;2022-09-27T00:07:16;98713.38;;;14.23;65.83
50268;BME280;36153;50.960;6.220;2022-09-27T00:10:17;98721.88;;;14.01;66.10
50268;BME280;36153;50.960;6.220;2022-09-27T00:13:17;98722.94;;;13.95;66.05
50268;BME280;36153;50.960;6.220;2022-09-27T00:16:17;98720.88;;;14.05;66.10
50268;BME280;36153;50.960;6.220;2022-09-27T00:19:20;98734.03;;;14.04;65.83
50268;BME280;36153;50.960;6.220;2022-09-27T00:22:23;98727.44;;;13.90;66.26
50268;BME280;36153;50.960;6.220;2022-09-27T00:25:23;98732.47;;;13.98;66.40
50268;BME280;36153;50.960;6.220;2022-09-27T00:28:25;98730.34;;;14.09;66.08
50268;BME280;36153;50.960;6.220;2022-09-27T00:31:28;98732.06;;;14.10;65.94
50268;BME280;36153;50.960;6.220;2022-09-27T00:34:29;98737.75;;;13.96;66.59
50268;BME280;36153;50.960;6.220;2022-09-27T00:37:29;98730.72;;;13.97;66.76
50268;BME280;36153;50.960;6.220;2022-09-27T00:40:29;98727.03;;;14.04;66.47
50268;BME280;36153;50.960;6.220;2022-09-27T00:44:00;98727.28;;;13.96;67.01
50268;BME280;36153;50.960;6.220;2022-09-27T00:50:29;98730.22;;;13.86;66.80
50268;BME280;36153;50.960;6.220;2022-09-27T00:53:43;98733.19;;;14.03;66.65
50268;BME280;36153;50.960;6.220;2022-09-27T00:56:48;98737.59;;;14.01;66.56
50268;BME280;36153;50.960;6.220;2022-09-27T01:00:02;98735.06;;;13.98;66.18
50268;BME280;36153;50.960;6.220;2022-09-27T01:03:06;98743.19;;;13.89;66.59
50268;BME280;36153;50.960;6.220;2022-09-27T01:06:12;98738.63;;;13.95;66.47
50268;BME280;36153;50.960;6.220;2022-09-27T01:09:13;98742.16;;;13.94;66.67
50268;BME280;36153;50.960;6.220;2022-09-27T01:15:44;98746.53;;;13.94;66.61
50268;BME280;36153;50.960;6.220;2022-09-27T01:29:38;98758.47;;;14.03;66.46
50268;BME280;36153;50.960;6.220;2022-09-27T01:32:54;98762.19;;;13.95;66.48
50268;BME280;36153;50.960;6.220;2022-09-27T01:36:20;98758.41;;;14.04;66.11
50268;BME280;36153;50.960;6.220;2022-09-27T01:39:47;98757.84;;;13.94;66.53
50268;BME280;36153;50.960;6.220;2022-09-27T01:46:04;98763.47;;;13.82;66.71
50268;BME280;36153;50.960;6.220;2022-09-27T01:49:16;98771.44;;;13.77;66.44
50268;BME280;36153;50.960;6.220;2022-09-27T01:52:21;98776.38;;;13.57;66.95
50268;BME280;36153;50.960;6.220;2022-09-27T01:55:25;98779.47;;;13.71;66.62
50268;BME280;36153;50.960;6.220;2022-09-27T01:58:35;98789.63;;;13.51;67.27
50268;BME280;36153;50.960;6.220;2022-09-27T02:01:38;98780.72;;;13.58;66.77
50268;BME280;36153;50.960;6.220;2022-09-27T02:04:41;98773.91;;;13.52;66.78
50268;BME280;36153;50.960;6.220;2022-09-27T02:07:50;98779.97;;;13.53;66.74
50268;BME280;36153;50.960;6.220;2022-09-27T02:10:54;98769.00;;;13.40;66.75
50268;BME280;36153;50.960;6.220;2022-09-27T02:14:02;98770.69;;;13.42;66.62
50268;BME280;36153;50.960;6.220;2022-09-27T02:17:20;98776.56;;;13.51;66.11
50268;BME280;36153;50.960;6.220;2022-09-27T02:20:38;98771.78;;;13.34;66.24
50268;BME280;36153;50.960;6.220;2022-09-27T02:23:53;98785.28;;;13.49;66.19
50268;BME280;36153;50.960;6.220;2022-09-27T02:27:06;98779.59;;;13.35;66.05
50268;BME280;36153;50.960;6.220;2022-09-27T02:30:12;98783.38;;;13.56;65.70
50268;BME280;36153;50.960;6.220;2022-09-27T02:33:13;98780.59;;;13.61;65.40
50268;BME280;36153;50.960;6.220;2022-09-27T02:36:14;98783.56;;;13.50;65.54
50268;BME280;36153;50.960;6.220;2022-09-27T02:39:16;98782.47;;;13.57;65.90
50268;BME280;36153;50.960;6.220;2022-09-27T02:42:16;98788.75;;;13.52;66.13
50268;BME280;36153;50.960;6.220;2022-09-27T02:45:18;98799.19;;;13.52;66.35
50268;BME280;36153;50.960;6.220;2022-09-27T02:51:40;98799.44;;;13.42;66.21
50268;BME280;36153;50.960;6.220;2022-09-27T02:55:24;98805.84;;;13.29;66.63
50268;BME280;36153;50.960;6.220;2022-09-27T03:02:16;98805.00;;;13.28;66.42
50268;BME280;36153;50.960;6.220;2022-09-27T03:05:27;98804.06;;;13.31;66.15
50268;BME280;36153;50.960;6.220;2022-09-27T03:08:29;98809.81;;;13.45;66.14
50268;BME280;36153;50.960;6.220;2022-09-27T03:11:29;98801.41;;;13.32;65.49
50268;BME280;36153;50.960;6.220;2022-09-27T03:14:30;98810.88;;;13.38;65.78
50268;BME280;36153;50.960;6.220;2022-09-27T03:17:30;98812.75;;;13.31;65.54
50268;BME280;36153;50.960;6.220;2022-09-27T03:20:30;98819.84;;;13.28;65.86
50268;BME280;36153;50.960;6.220;2022-09-27T03:23:31;98824.03;;;13.34;65.86
50268;BME280;36153;50.960;6.220;2022-09-27T03:26:31;98835.09;;;13.45;65.49
50268;BME280;36153;50.960;6.220;2022-09-27T03:29:31;98833.88;;;13.24;65.83
50268;BME280;36153;50.960;6.220;2022-09-27T03:32:32;98832.16;;;13.23;66.16
50268;BME280;36153;50.960;6.220;2022-09-27T03:35:33;98833.94;;;13.21;65.51
50268;BME280;36153;50.960;6.220;2022-09-27T03:38:33;98830.91;;;13.03;65.87
50268;BME280;36153;50.960;6.220;2022-09-27T03:41:33;98826.63;;;13.01;66.22
50268;BME280;36153;50.960;6.220;2022-09-27T03:44:34;98822.25;;;13.01;66.45
50268;BME280;36153;50.960;6.220;2022-09-27T03:47:39;98829.91;;;13.09;65.96
50268;BME280;36153;50.960;6.220;2022-09-27T03:50:39;98829.09;;;13.05;65.80
50268;BME280;36153;50.960;6.220;2022-09-27T03:53:39;98825.84;;;12.97;66.19
50268;BME280;36153;50.960;6.220;2022-09-27T03:56:39;98824.13;;;12.96;65.99
50268;BME280;36153;50.960;6.220;2022-09-27T03:59:40;98824.13;;;12.96;66.03
50268;BME280;36153;50.960;6.220;2022-09-27T04:02:41;98828.88;;;12.80;66.10
50268;BME280;36153;50.960;6.220;2022-09-27T04:05:41;98819.31;;;12.80;66.06
50268;BME280;36153;50.960;6.220;2022-09-27T04:08:42;98807.13;;;12.79;65.64
50268;BME280;36153;50.960;6.220;2022-09-27T04:11:42;98809.88;;;12.73;65.75
50268;BME280;36153;50.960;6.220;2022-09-27T04:14:42;98802.22;;;12.67;65.55
50268;BME280;36153;50.960;6.220;2022-09-27T04:17:43;98810.84;;;12.69;65.90
50268;BME280;36153;50.960;6.220;2022-09-27T04:20:43;98805.88;;;12.60;65.80
50268;BME280;36153;50.960;6.220;2022-09-27T04:23:43;98811.66;;;12.73;65.32
50268;BME280;36153;50.960;6.220;2022-09-27T04:26:43;98810.03;;;12.67;65.00
50268;BME280;36153;50.960;6.220;2022-09-27T04:29:44;98813.28;;;12.77;64.77
50268;BME280;36153;50.960;6.220;2022-09-27T04:32:45;98807.59;;;12.61;64.92
50268;BME280;36153;50.960;6.220;2022-09-27T04:35:45;98818.63;;;12.72;64.63
50268;BME280;36153;50.960;6.220;2022-09-27T04:39:06;98813.84;;;12.90;64.40
50268;BME280;36153;50.960;6.220;2022-09-27T04:42:07;98817.38;;;12.89;63.86
50268;BME280;36153;50.960;6.220;2022-09-27T04:45:09;98821.84;;;12.84;64.49
50268;BME280;36153;50.960;6.220;2022-09-27T04:48:12;98829.88;;;12.74;64.77
50268;BME280;36153;50.960;6.220;2022-09-27T04:51:13;98837.34;;;12.90;64.77
50268;BME280;36153;50.960;6.220;2022-09-27T04:54:16;98840.78;;;12.92;64.73
50268;BME280;36153;50.960;6.220;2022-09-27T04:57:16;98847.41;;;13.05;64.65
50268;BME280;36153;50.960;6.220;2022-09-27T05:00:17;98852.31;;;13.18;64.23
50268;BME280;36153;50.960;6.220;2022-09-27T05:03:18;98853.16;;;13.20;64.01
50268;BME280;36153;50.960;6.220;2022-09-27T05:06:18;98853.53;;;13.04;64.42
50268;BME280;36153;50.960;6.220;2022-09-27T05:09:19;98849.50;;;12.91;64.63
50268;BME280;36153;50.960;6.220;2022-09-27T05:12:20;98849.47;;;12.92;64.49
50268;BME280;36153;50.960;6.220;2022-09-27T05:15:20;98855.22;;;13.05;64.11
50268;BME280;36153;50.960;6.220;2022-09-27T05:18:20;98859.06;;;12.92;64.52
50268;BME280;36153;50.960;6.220;2022-09-27T05:21:21;98858.22;;;12.90;64.47
50268;BME280;36153;50.960;6.220;2022-09-27T05:24:21;98859.78;;;12.98;64.38
50268;BME280;36153;50.960;6.220;2022-09-27T05:27:22;98865.94;;;12.96;64.40
50268;BME280;36153;50.960;6.220;2022-09-27T05:30:23;98870.97;;;13.02;64.16
50268;BME280;36153;50.960;6.220;2022-09-27T05:33:23;98878.44;;;13.18;63.84
50268;BME280;36153;50.960;6.220;2022-09-27T05:36:24;98879.50;;;13.10;63.44
50268;BME280;36153;50.960;6.220;2022-09-27T05:39:24;98896.41;;;13.30;63.55
50268;BME280;36153;50.960;6.220;2022-09-27T05:42:24;98889.72;;;13.20;63.29
50268;BME280;36153;50.960;6.220;2022-09-27T05:45:25;98891.19;;;13.30;63.20
50268;BME280;36153;50.960;6.220;2022-09-27T05:48:25;98893.16;;;13.22;63.41
50268;BME280;36153;50.960;6.220;2022-09-27T05:51:25;98897.31;;;13.30;63.41
50268;BME280;36153;50.960;6.220;2022-09-27T05:54:26;98896.59;;;13.24;63.26
50268;BME280;36153;50.960;6.220;2022-09-27T05:57:28;98903.69;;;13.19;63.24
50268;BME280;36153;50.960;6.220;2022-09-27T06:00:29;98893.69;;;13.00;63.63
50268;BME280;36153;50.960;6.220;2022-09-27T06:03:33;98894.38;;;13.07;62.98
50268;BME280;36153;50.960;6.220;2022-09-27T06:06:37;98893.31;;;13.15;62.92
50268;BME280;36153;50.960;6.220;2022-09-27T06:09:37;98895.25;;;13.07;62.75
50268;BME280;36153;50.960;6.220;2022-09-27T06:12:37;98887.25;;;13.13;62.78
50268;BME280;36153;50.960;6.220;2022-09-27T06:15:39;98893.41;;;13.12;62.37
50268;BME280;36153;50.960;6.220;2022-09-27T06:18:41;98889.94;;;13.10;62.65
50268;BME280;36153;50.960;6.220;2022-09-27T06:21:42;98892.06;;;13.30;62.60
50268;BME280;36153;50.960;6.220;2022-09-27T06:24:42;98904.72;;;13.11;62.53
50268;BME280;36153;50.960;6.220;2022-09-27T06:27:42;98902.84;;;13.18;62.67
50268;BME280;36153;50.960;6.220;2022-09-27T06:30:45;98906.38;;;13.15;63.20
50268;BME280;36153;50.960;6.220;2022-09-27T06:33:47;98910.38;;;13.30;62.38
50268;BME280;36153;50.960;6.220;2022-09-27T06:36:49;98912.56;;;13.11;62.92
50268;BME280;36153;50.960;6.220;2022-09-27T06:39:49;98905.41;;;13.20;63.02
50268;BME280;36153;50.960;6.220;2022-09-27T06:42:51;98901.22;;;13.12;63.07
50268;BME280;36153;50.960;6.220;2022-09-27T06:45:52;98903.94;;;13.44;62.20
50268;BME280;36153;50.960;6.220;2022-09-27T06:48:53;98912.81;;;13.38;62.29
50268;BME280;36153;50.960;6.220;2022-09-27T06:51:54;98915.09;;;13.51;61.86
50268;BME280;36153;50.960;6.220;2022-09-27T06:54:56;98905.72;;;13.43;61.50
50268;BME280;36153;50.960;6.220;2022-09-27T06:57:58;98916.75;;;13.55;61.75
50268;BME280;36153;50.960;6.220;2022-09-27T07:01:17;98923.75;;;13.53;61.92
50268;BME280;36153;50.960;6.220;2022-09-27T07:04:18;98915.28;;;13.44;61.48
50268;BME280;36153;50.960;6.220;2022-09-27T07:07:18;98923.25;;;13.38;61.71
50268;BME280;36153;50.960;6.220;2022-09-27T07:10:18;98921.31;;;13.46;61.36
50268;BME280;36153;50.960;6.220;2022-09-27T07:13:19;98912.50;;;13.83;61.18
50268;BME280;36153;50.960;6.220;2022-09-27T07:16:19;98913.06;;;13.62;61.09
50268;BME280;36153;50.960;6.220;2022-09-27T07:19:20;98907.91;;;13.59;62.25
50268;BME280;36153;50.960;6.220;2022-09-27T07:22:20;98910.88;;;13.79;61.90
50268;BME280;36153;50.960;6.220;2022-09-27T07:25:21;98910.44;;;13.95;61.92
50268;BME280;36153;50.960;6.220;2022-09-27T07:28:22;98912.22;;;13.93;61.58
50268;BME280;36153;50.960;6.220;2022-09-27T07:31:22;98919.72;;;14.05;61.18
50268;BME280;36153;50.960;6.220;2022-09-27T07:34:23;98921.91;;;14.21;60.46
50268;BME280;36153;50.960;6.220;2022-09-27T07:37:23;98919.22;;;14.24;60.71
50268;BME280;36153;50.960;6.220;2022-09-27T07:40:25;98926.44;;;14.45;60.16
50268;BME280;36153;50.960;6.220;2022-09-27T07:43:25;98912.38;;;14.18;60.20
50268;BME280;36153;50.960;6.220;2022-09-27T07:46:26;98919.22;;;14.24;60.54
50268;BME280;36153;50.960;6.220;2022-09-27T07:49:26;98934.88;;;14.25;60.76
50268;BME280;36153;50.960;6.220;2022-09-27T07:52:27;98939.56;;;14.44;60.06
50268;BME280;36153;50.960;6.220;2022-09-27T07:55:27;98944.28;;;14.62;59.24
50268;BME280;36153;50.960;6.220;2022-09-27T07:58:28;98942.34;;;14.39;59.47
50268;BME280;36153;50.960;6.220;2022-09-27T08:01:29;98946.84;;;14.64;59.83
50268;BME280;36153;50.960;6.220;2022-09-27T08:04:29;98951.50;;;14.84;59.15
50268;BME280;36153;50.960;6.220;2022-09-27T08:07:30;98950.44;;;14.60;58.64
50268;BME280;36153;50.960;6.220;2022-09-27T08:10:32;98950.81;;;14.77;58.67
50268;BME280;36153;50.960;6.220;2022-09-27T08:13:33;98962.97;;;14.80;58.39
50268;BME280;36153;50.960;6.220;2022-09-27T08:16:33;98958.88;;;14.99;58.33
50268;BME280;36153;50.960;6.220;2022-09-27T08:19:33;98956.56;;;15.17;57.85
50268;BME280;36153;50.960;6.220;2022-09-27T08:22:39;98956.34;;;15.25;57.33
50268;BME280;36153;50.960;6.220;2022-09-27T08:25:40;98961.16;;;15.10;57.25
50268;BME280;36153;50.960;6.220;2022-09-27T08:28:41;98969.25;;;14.74;58.12
50268;BME280;36153;50.960;6.220;2022-09-27T08:31:41;98960.59;;;15.00;58.23
50268;BME280;36153;50.960;6.220;2022-09-27T08:34:42;98975.94;;;14.84;58.54
50268;BME280;36153;50.960;6.220;2022-09-27T08:37:42;98966.91;;;14.95;58.29
50268;BME280;36153;50.960;6.220;2022-09-27T08:40:53;98972.22;;;14.62;58.28
50268;BME280;36153;50.960;6.220;2022-09-27T08:44:10;98968.72;;;14.63;59.34
50268;BME280;36153;50.960;6.220;2022-09-27T08:47:17;98977.44;;;14.92;58.28
50268;BME280;36153;50.960;6.220;2022-09-27T08:50:30;98980.91;;;14.94;58.46
50268;BME280;36153;50.960;6.220;2022-09-27T08:53:56;98976.06;;;15.08;58.41
50268;BME280;36153;50.960;6.220;2022-09-27T08:57:02;98980.75;;;14.98;58.43
50268;BME280;36153;50.960;6.220;2022-09-27T09:00:07;98970.66;;;15.14;58.37
50268;BME280;36153;50.960;6.220;2022-09-27T09:03:17;98975.78;;;15.44;57.05
50268;BME280;36153;50.960;6.220;2022-09-27T09:06:27;98978.31;;;15.74;56.23
50268;BME280;36153;50.960;6.220;2022-09-27T09:09:55;98975.09;;;15.66;55.73
50268;BME280;36153;50.960;6.220;2022-09-27T09:13:04;98978.31;;;15.74;55.62
50268;BME280;36153;50.960;6.220;2022-09-27T09:23:24;98973.41;;;15.90;55.56
50268;BME280;36153;50.960;6.220;2022-09-27T09:33:24;98972.97;;;15.50;55.17
50268;BME280;36153;50.960;6.220;2022-09-27T09:36:39;98976.28;;;15.56;55.42
50268;BME280;36153;50.960;6.220;2022-09-27T09:39:44;98967.81;;;15.74;55.21
50268;BME280;36153;50.960;6.220;2022-09-27T09:43:10;98968.44;;;15.82;54.20
50268;BME280;36153;50.960;6.220;2022-09-27T09:46:20;98967.44;;;15.33;55.56
50268;BME280;36153;50.960;6.220;2022-09-27T09:49:29;98973.63;;;15.30;56.02
50268;BME280;36153;50.960;6.220;2022-09-27T09:52:45;98975.06;;;14.84;57.14
50268;BME280;36153;50.960;6.220;2022-09-27T09:55:53;98970.50;;;14.91;57.20
50268;BME280;36153;50.960;6.220;2022-09-27T09:58:59;98966.28;;;14.87;57.96
50268;BME280;36153;50.960;6.220;2022-09-27T10:02:34;98976.34;;;14.71;58.05
50268;BME280;36153;50.960;6.220;2022-09-27T10:05:35;98964.44;;;14.59;58.05
50268;BME280;36153;50.960;6.220;2022-09-27T10:08:36;98970.25;;;14.70;58.55
50268;BME280;36153;50.960;6.220;2022-09-27T10:11:40;98970.97;;;15.04;57.65
50268;BME280;36153;50.960;6.220;2022-09-27T10:14:44;98964.00;;;15.84;56.33
50268;BME280;36153;50.960;6.220;2022-09-27T10:17:48;98955.03;;;16.39;53.70
50268;BME280;36153;50.960;6.220;2022-09-27T10:20:56;98952.94;;;16.71;53.61
50268;BME280;36153;50.960;6.220;2022-09-27T10:24:09;98949.81;;;16.61;52.01
50268;BME280;36153;50.960;6.220;2022-09-27T10:27:10;98952.59;;;16.80;52.55
50268;BME280;36153;50.960;6.220;2022-09-27T10:30:32;98951.34;;;16.67;53.22
50268;BME280;36153;50.960;6.220;2022-09-27T10:33:34;98949.63;;;16.66;52.49
50268;BME280;36153;50.960;6.220;2022-09-27T10:36:37;98944.97;;;16.27;53.78
50268;BME280;36153;50.960;6.220;2022-09-27T10:39:38;98942.47;;;16.24;53.32
50268;BME280;36153;50.960;6.220;2022-09-27T10:42:40;98945.09;;;16.47;53.23
50268;BME280;36153;50.960;6.220;2022-09-27T10:45:40;98939.69;;;16.74;53.33
50268;BME280;36153;50.960;6.220;2022-09-27T10:48:41;98941.75;;;16.89;52.92
50268;BME280;36153;50.960;6.220;2022-09-27T10:51:42;98933.00;;;17.11;51.37
50268;BME280;36153;50.960;6.220;2022-09-27T10:55:20;98936.97;;;17.64;51.17
50268;BME280;36153;50.960;6.220;2022-09-27T10:58:33;98932.81;;;17.58;50.50
50268;BME280;36153;50.960;6.220;2022-09-27T11:01:43;98926.97;;;17.72;50.77
50268;BME280;36153;50.960;6.220;2022-09-27T11:05:10;98933.31;;;18.67;47.22
50268;BME280;36153;50.960;6.220;2022-09-27T11:11:23;98917.56;;;18.27;48.54
50268;BME280;36153;50.960;6.220;2022-09-27T11:14:23;98927.69;;;17.97;47.24
50268;BME280;36153;50.960;6.220;2022-09-27T11:17:33;98920.84;;;17.51;48.20
50268;BME280;36153;50.960;6.220;2022-09-27T11:21:07;98921.63;;;17.53;49.71
50268;BME280;36153;50.960;6.220;2022-09-27T11:28:11;98935.69;;;16.87;48.55
50268;BME280;36153;50.960;6.220;2022-09-27T11:31:41;98929.91;;;16.55;50.84
50268;BME280;36153;50.960;6.220;2022-09-27T11:38:37;98921.84;;;16.82;51.10
50268;BME280;36153;50.960;6.220;2022-09-27T11:42:04;98926.00;;;16.42;52.54
50268;BME280;36153;50.960;6.220;2022-09-27T11:58:05;98933.63;;;14.97;58.11
50268;BME280;36153;50.960;6.220;2022-09-27T12:01:25;98942.25;;;14.42;58.96
50268;BME280;36153;50.960;6.220;2022-09-27T12:11:30;98928.28;;;15.53;59.61
50268;BME280;36153;50.960;6.220;2022-09-27T12:14:39;98926.22;;;15.63;59.03
50268;BME280;36153;50.960;6.220;2022-09-27T12:17:43;98934.84;;;15.40;57.90
50268;BME280;36153;50.960;6.220;2022-09-27T12:20:44;98924.97;;;15.48;59.42
50268;BME280;36153;50.960;6.220;2022-09-27T12:23:47;98931.38;;;15.40;57.89
50268;BME280;36153;50.960;6.220;2022-09-27T12:26:51;98943.97;;;14.43;60.04
50268;BME280;36153;50.960;6.220;2022-09-27T12:29:54;98952.28;;;13.95;59.91
50268;BME280;36153;50.960;6.220;2022-09-27T12:36:17;98950.22;;;14.38;59.49
50268;BME280;36153;50.960;6.220;2022-09-27T12:39:27;98949.53;;;14.61;58.72
50268;BME280;36153;50.960;6.220;2022-09-27T12:42:38;98950.78;;;14.79;58.02
50268;BME280;36153;50.960;6.220;2022-09-27T12:45:53;98944.78;;;15.04;57.50
50268;BME280;36153;50.960;6.220;2022-09-27T12:52:07;98955.69;;;14.90;57.65
50268;BME280;36153;50.960;6.220;2022-09-27T12:55:20;98959.41;;;14.82;58.36
50268;BME280;36153;50.960;6.220;2022-09-27T13:15:13;98958.22;;;15.19;57.67
50268;BME280;36153;50.960;6.220;2022-09-27T13:24:46;98949.03;;;15.34;57.16
50268;BME280;36153;50.960;6.220;2022-09-27T13:27:47;98941.59;;;15.47;56.47
50268;BME280;36153;50.960;6.220;2022-09-27T13:30:47;98932.78;;;15.75;56.09
50268;BME280;36153;50.960;6.220;2022-09-27T13:33:50;98929.91;;;16.08;55.40
50268;BME280;36153;50.960;6.220;2022-09-27T13:36:51;98928.34;;;16.73;55.27
50268;BME280;36153;50.960;6.220;2022-09-27T13:40:10;98930.03;;;17.41;51.31
50268;BME280;36153;50.960;6.220;2022-09-27T13:46:50;98934.13;;;17.69;51.11
50268;BME280;36153;50.960;6.220;2022-09-27T13:49:56;98917.28;;;17.94;49.95
50268;BME280;36153;50.960;6.220;2022-09-27T13:53:07;98922.66;;;17.49;50.14
50268;BME280;36153;50.960;6.220;2022-09-27T13:59:44;98934.69;;;16.68;50.99
50268;BME280;36153;50.960;6.220;2022-09-27T14:03:06;98933.22;;;16.61;51.62
50268;BME280;36153;50.960;6.220;2022-09-27T14:06:28;98929.66;;;16.38;52.41
50268;BME280;36153;50.960;6.220;2022-09-27T14:09:32;98929.63;;;16.16;52.25
50268;BME280;36153;50.960;6.220;2022-09-27T14:12:36;98933.44;;;16.07;52.79
50268;BME280;36153;50.960;6.220;2022-09-27T14:15:38;98944.34;;;15.69;54.02
50268;BME280;36153;50.960;6.220;2022-09-27T14:18:42;98942.44;;;15.21;55.19
50268;BME280;36153;50.960;6.220;2022-09-27T14:21:46;98944.06;;;14.70;53.66
50268;BME280;36153;50.960;6.220;2022-09-27T14:24:51;98947.28;;;14.48;55.17
50268;BME280;36153;50.960;6.220;2022-09-27T14:27:52;98943.97;;;14.42;55.72
50268;BME280;36153;50.960;6.220;2022-09-27T14:31:12;98943.88;;;14.46;55.63
50268;BME280;36153;50.960;6.220;2022-09-27T14:34:14;98948.81;;;14.56;55.57
50268;BME280;36153;50.960;6.220;2022-09-27T14:37:20;98951.78;;;14.75;54.96
50268;BME280;36153;50.960;6.220;2022-09-27T14:40:26;98949.09;;;14.76;55.03
50268;BME280;36153;50.960;6.220;2022-09-27T14:43:28;98945.69;;;14.74;54.55
50268;BME280;36153;50.960;6.220;2022-09-27T14:46:30;98945.47;;;14.80;54.16
50268;BME280;36153;50.960;6.220;2022-09-27T14:49:31;98952.97;;;14.64;54.07
50268;BME280;36153;50.960;6.220;2022-09-27T14:52:32;98956.13;;;14.76;53.11
50268;BME280;36153;50.960;6.220;2022-09-27T14:55:35;98954.41;;;15.03;53.40
50268;BME280;36153;50.960;6.220;2022-09-27T14:58:35;98952.81;;;15.26;52.43
50268;BME280;36153;50.960;6.220;2022-09-27T15:01:36;98952.16;;;15.71;52.74
50268;BME280;36153;50.960;6.220;2022-09-27T15:04:42;98954.28;;;15.60;51.65
50268;BME280;36153;50.960;6.220;2022-09-27T15:07:46;98944.84;;;15.82;51.27
50268;BME280;36153;50.960;6.220;2022-09-27T15:10:47;98948.84;;;15.66;51.56
50268;BME280;36153;50.960;6.220;2022-09-27T15:13:50;98944.22;;;15.47;51.13
50268;BME280;36153;50.960;6.220;2022-09-27T15:16:52;98948.25;;;15.31;51.61
50268;BME280;36153;50.960;6.220;2022-09-27T15:19:58;98943.88;;;15.31;51.05
50268;BME280;36153;50.960;6.220;2022-09-27T15:23:00;98938.41;;;15.38;51.35
50268;BME280;36153;50.960;6.220;2022-09-27T15:26:09;98935.19;;;15.56;51.74
50268;BME280;36153;50.960;6.220;2022-09-27T15:29:37;98948.97;;;15.36;52.28
50268;BME280;36153;50.960;6.220;2022-09-27T15:32:37;98935.47;;;15.22;52.50
50268;BME280;36153;50.960;6.220;2022-09-27T15:35:38;98931.06;;;15.22;53.08
50268;BME280;36153;50.960;6.220;2022-09-27T15:38:43;98929.31;;;15.23;52.70
50268;BME280;36153;50.960;6.220;2022-09-27T15:42:00;98929.41;;;15.19;52.98
50268;BME280;36153;50.960;6.220;2022-09-27T15:45:00;98925.28;;;15.12;53.59
50268;BME280;36153;50.960;6.220;2022-09-27T15:48:14;98920.09;;;15.11;53.99
50268;BME280;36153;50.960;6.220;2022-09-27T15:51:37;98912.63;;;15.25;54.01
50268;BME280;36153;50.960;6.220;2022-09-27T15:54:39;98919.41;;;15.31;53.94
50268;BME280;36153;50.960;6.220;2022-09-27T15:57:40;98916.41;;;15.16;54.42
50268;BME280;36153;50.960;6.220;2022-09-27T16:00:57;98916.84;;;15.02;55.05
50268;BME280;36153;50.960;6.220;2022-09-27T16:03:58;98914.72;;;15.14;55.13
50268;BME280;36153;50.960;6.220;2022-09-27T16:07:00;98917.31;;;15.15;55.54
50268;BME280;36153;50.960;6.220;2022-09-27T16:10:01;98911.75;;;15.25;55.88
50268;BME280;36153;50.960;6.220;2022-09-27T16:13:01;98908.03;;;15.32;55.74
50268;BME280;36153;50.960;6.220;2022-09-27T16:16:01;98909.38;;;15.17;56.05
50268;BME280;36153;50.960;6.220;2022-09-27T16:19:02;98900.03;;;15.36;56.15
50268;BME280;36153;50.960;6.220;2022-09-27T16:22:02;98890.91;;;15.22;56.04
50268;BME280;36153;50.960;6.220;2022-09-27T16:25:04;98892.69;;;15.19;55.67
50268;BME280;36153;50.960;6.220;2022-09-27T16:28:05;98885.78;;;15.44;55.76
50268;BME280;36153;50.960;6.220;2022-09-27T16:31:08;98888.34;;;15.20;56.08
50268;BME280;36153;50.960;6.220;2022-09-27T16:34:10;98887.97;;;15.04;56.71
50268;BME280;36153;50.960;6.220;2022-09-27T16:37:11;98877.72;;;14.98;56.48
50268;BME280;36153;50.960;6.220;2022-09-27T16:40:12;98878.00;;;15.15;56.33
50268;BME280;36153;50.960;6.220;2022-09-27T16:43:14;98876.53;;;15.07;56.34
50268;BME280;36153;50.960;6.220;2022-09-27T16:46:14;98880.00;;;14.80;56.39
50268;BME280;36153;50.960;6.220;2022-09-27T16:49:17;98873.75;;;14.84;56.48
50268;BME280;36153;50.960;6.220;2022-09-27T16:52:36;98876.09;;;14.94;56.28
50268;BME280;36153;50.960;6.220;2022-09-27T16:55:37;98866.84;;;14.82;56.15
50268;BME280;36153;50.960;6.220;2022-09-27T16:58:38;98867.06;;;14.76;56.82
50268;BME280;36153;50.960;6.220;2022-09-27T17:01:38;98869.78;;;14.73;56.45
50268;BME280;36153;50.960;6.220;2022-09-27T17:04:38;98868.00;;;14.73;56.60
50268;BME280;36153;50.960;6.220;2022-09-27T17:07:40;98869.91;;;14.68;56.57
50268;BME280;36153;50.960;6.220;2022-09-27T17:10:43;98874.19;;;14.71;56.87
50268;BME280;36153;50.960;6.220;2022-09-27T17:13:44;98871.03;;;14.59;57.23
50268;BME280;36153;50.960;6.220;2022-09-27T17:16:47;98877.06;;;14.63;57.41
50268;BME280;36153;50.960;6.220;2022-09-27T17:19:48;98882.72;;;14.49;58.20
50268;BME280;36153;50.960;6.220;2022-09-27T17:22:48;98875.78;;;14.46;58.57
50268;BME280;36153;50.960;6.220;2022-09-27T17:25:48;98873.66;;;14.31;59.09
50268;BME280;36153;50.960;6.220;2022-09-27T17:28:50;98869.44;;;14.25;58.96
50268;BME280;36153;50.960;6.220;2022-09-27T17:31:54;98860.63;;;14.28;59.42
50268;BME280;36153;50.960;6.220;2022-09-27T17:34:54;98846.38;;;14.38;59.79
50268;BME280;36153;50.960;6.220;2022-09-27T17:37:56;98834.44;;;14.28;60.31
50268;BME280;36153;50.960;6.220;2022-09-27T17:41:05;98815.72;;;14.13;60.64
50268;BME280;36153;50.960;6.220;2022-09-27T17:44:06;98828.94;;;14.09;60.82
50268;BME280;36153;50.960;6.220;2022-09-27T17:47:06;98820.09;;;14.13;60.94
50268;BME280;36153;50.960;6.220;2022-09-27T17:50:25;98812.78;;;14.24;61.31
50268;BME280;36153;50.960;6.220;2022-09-27T17:53:27;98818.28;;;14.15;61.51
50268;BME280;36153;50.960;6.220;2022-09-27T17:56:28;98824.44;;;14.12;61.24
50268;BME280;36153;50.960;6.220;2022-09-27T17:59:28;98812.47;;;14.05;61.26
50268;BME280;36153;50.960;6.220;2022-09-27T18:02:28;98812.28;;;14.11;61.12
50268;BME280;36153;50.960;6.220;2022-09-27T18:05:29;98811.47;;;14.09;60.85
50268;BME280;36153;50.960;6.220;2022-09-27T18:08:29;98804.41;;;14.13;60.61